Time;durP1;ratioP1;P1;durP2;ratioP2;P2;SDS_P1;SDS_P2;PMS_P1;PMS_P2;Temp;Humidity;BMP_temperature;BMP_pressure;BME280_temperature;BME280_humidity;BME280_pressure;Samples;Min_cycle;Max_cycle;Signal;HPM_P1;HPM_P2
2023/03/04 00:00:25;;;;;;;31.17;17.97;;;-0.70;91.80;;;-1.34;82.03;98420.41;5085155;28;20545;-67
2023/03/04 00:02:52;;;;;;;26.33;17.30;;;-0.80;92.20;;;-1.35;82.15;98418.72;5091421;28;20511;-67
2023/03/04 00:05:20;;;;;;;27.10;16.67;;;-0.80;92.80;;;-1.44;82.45;98418.56;5080823;28;20462;-68
2023/03/04 00:07:48;;;;;;;30.90;18.10;;;-0.90;92.50;;;-1.59;82.78;98425.13;5087279;28;20459;-66
2023/03/04 00:10:16;;;;;;;29.27;18.27;;;-1.00;93.00;;;-1.66;83.16;98413.34;5097299;28;20489;-66
2023/03/04 00:12:43;;;;;;;34.20;20.73;;;-1.00;93.80;;;-1.74;83.81;98420.16;5120610;27;20999;-70
2023/03/04 00:15:11;;;;;;;52.57;26.17;;;-1.10;94.10;;;-1.81;83.92;98416.31;5095658;28;20497;-68
2023/03/04 00:17:38;;;;;;;39.60;21.93;;;-1.20;94.60;;;-1.68;83.96;98420.59;5071424;28;20975;-70
2023/03/04 00:20:07;;;;;;;32.60;20.30;;;-1.10;95.80;;;-1.77;84.02;98423.03;5075787;28;20500;-68
2023/03/04 00:22:35;;;;;;;29.70;18.67;;;-1.10;95.70;;;-1.71;84.22;98414.59;5112758;27;20516;-68
2023/03/04 00:25:04;;;;;;;37.93;22.13;;;-1.10;96.20;;;-1.84;84.94;98416.56;5107342;28;20528;-66
2023/03/04 00:27:31;;;;;;;33.90;20.67;;;-1.10;95.70;;;-1.63;84.52;98423.69;5093039;28;20466;-68
2023/03/04 00:29:58;;;;;;;31.07;18.23;;;-1.10;95.90;;;-1.71;83.95;98425.19;5089515;28;20455;-66
2023/03/04 00:32:25;;;;;;;31.00;18.70;;;-1.10;95.10;;;-1.69;84.49;98419.75;5089619;28;20621;-66
2023/03/04 00:34:52;;;;;;;28.53;18.67;;;-1.10;95.40;;;-1.85;84.33;98420.19;5100329;28;20446;-67
2023/03/04 00:37:20;;;;;;;23.77;15.43;;;-1.20;95.40;;;-1.85;84.56;98413.06;5090840;28;20492;-67
2023/03/04 00:39:47;;;;;;;30.30;16.10;;;-1.20;95.80;;;-1.81;84.27;98416.31;5098923;27;20448;-68
2023/03/04 00:42:16;;;;;;;25.70;16.67;;;-1.20;95.50;;;-1.74;83.67;98419.28;5095583;28;21236;-68
2023/03/04 00:44:44;;;;;;;25.87;15.93;;;-1.20;95.60;;;-1.77;84.13;98417.72;5086209;28;20510;-68
2023/03/04 00:47:11;;;;;;;30.03;18.47;;;-1.20;95.20;;;-1.90;84.79;98422.34;5087633;28;20497;-67
2023/03/04 00:49:38;;;;;;;28.33;15.37;;;-1.20;95.30;;;-1.94;84.68;98415.63;5078160;28;20445;-69
2023/03/04 00:52:06;;;;;;;20.30;14.77;;;-1.20;95.40;;;-1.90;84.59;98422.34;5115233;27;20459;-67
2023/03/04 00:54:33;;;;;;;25.37;16.40;;;-1.20;95.20;;;-1.97;84.43;98418.53;5117959;27;20455;-67
2023/03/04 00:57:00;;;;;;;25.57;15.43;;;-1.20;95.10;;;-1.88;84.37;98420.44;5091751;28;20513;-67
2023/03/04 00:59:29;;;;;;;29.80;16.83;;;-1.10;95.70;;;-1.96;84.74;98417.56;5085900;28;20459;-67
2023/03/04 01:01:56;;;;;;;27.20;15.57;;;-1.20;94.80;;;-2.01;85.01;98423.22;5102223;28;20511;-67
2023/03/04 01:04:23;;;;;;;26.40;14.70;;;-1.20;94.70;;;-1.86;84.15;98424.63;5093173;28;20958;-66
2023/03/04 01:06:50;;;;;;;26.03;15.93;;;-1.20;94.70;;;-2.00;84.73;98416.97;5104266;28;20440;-67
2023/03/04 01:09:17;;;;;;;27.77;18.70;;;-1.20;94.70;;;-2.02;84.14;98409.16;5103896;28;20462;-68
2023/03/04 01:11:44;;;;;;;30.37;16.43;;;-1.30;94.60;;;-1.98;84.54;98419.50;5105176;28;20446;-66
2023/03/04 01:14:12;;;;;;;21.57;14.77;;;-1.30;95.10;;;-2.13;84.93;98417.13;5105049;28;20459;-66
2023/03/04 01:16:40;;;;;;;23.63;15.53;;;-1.40;94.80;;;-2.17;85.13;98410.41;5081668;28;20497;-67
2023/03/04 01:19:08;;;;;;;30.27;14.93;;;-1.40;95.80;;;-2.20;85.30;98400.06;5099956;28;20458;-66
2023/03/04 01:21:35;;;;;;;26.70;15.40;;;-1.50;96.50;;;-2.09;85.64;98407.97;5089954;28;20475;-67
2023/03/04 01:24:02;;;;;;;27.50;15.43;;;-1.50;97.40;;;-2.23;85.19;98400.31;5097087;28;20857;-68
2023/03/04 01:26:29;;;;;;;29.60;16.43;;;-1.60;96.80;;;-2.20;86.01;98405.34;5094053;28;20462;-68
2023/03/04 01:28:56;;;;;;;25.03;15.23;;;-1.60;97.40;;;-2.11;85.22;98406.44;5104374;28;20474;-67
2023/03/04 01:31:23;;;;;;;24.13;14.67;;;-1.60;98.40;;;-2.23;85.54;98400.31;5111730;27;20446;-67
2023/03/04 01:33:52;;;;;;;28.67;15.47;;;-1.60;97.80;;;-2.38;86.50;98407.69;5108458;28;21024;-67
2023/03/04 01:36:20;;;;;;;27.20;15.73;;;-1.70;98.60;;;-2.28;85.99;98409.47;5091632;28;20438;-66
2023/03/04 01:38:47;;;;;;;23.37;15.67;;;-1.70;99.90;;;-2.36;85.93;98406.59;5091825;28;20459;-68
2023/03/04 01:41:17;;;;;;;21.90;14.77;;;-1.70;99.60;;;-2.50;86.75;98401.56;5094842;28;20471;-67
2023/03/04 01:43:44;;;;;;;24.17;15.00;;;-1.70;99.60;;;-2.48;86.96;98408.44;5101933;28;20516;-68
2023/03/04 01:46:13;;;;;;;23.03;13.53;;;-1.70;99.20;;;-2.37;86.11;98399.63;5096061;28;20450;-67
2023/03/04 01:48:41;;;;;;;20.07;14.37;;;-1.70;99.60;;;-2.46;86.04;98401.19;5108453;28;20491;-67
2023/03/04 01:51:15;;;;;;;21.20;14.40;;;-1.70;98.10;;;-2.54;86.41;98403.63;5109856;28;20448;-67
2023/03/04 01:53:43;;;;;;;25.87;15.00;;;-1.80;98.10;;;-2.63;86.93;98394.63;5104070;28;20444;-67
2023/03/04 01:56:19;;;;;;;22.90;15.00;;;-1.80;98.60;;;-2.66;86.70;98394.84;5083211;28;20532;-71
2023/03/04 01:59:10;;;;;;;22.27;14.60;;;-1.90;98.70;;;-2.66;86.58;98392.19;5102120;28;20446;-67
2023/03/04 02:01:39;;;;;;;23.50;14.60;;;-1.90;98.90;;;-2.69;87.17;98384.50;5100981;28;20974;-66
2023/03/04 02:04:07;;;;;;;23.33;13.43;;;-1.90;99.50;;;-2.71;87.36;98386.44;5115974;27;20456;-67
2023/03/04 02:06:37;;;;;;;21.00;13.63;;;-1.90;99.60;;;-2.67;87.10;98389.69;5105485;28;20456;-67
2023/03/04 02:09:06;;;;;;;23.03;13.20;;;-1.90;99.70;;;-2.72;87.10;98395.34;5093719;28;20512;-68
2023/03/04 02:11:33;;;;;;;26.37;14.60;;;-2.00;99.90;;;-2.80;87.23;98366.84;5093918;28;20502;-68
2023/03/04 02:14:01;;;;;;;20.77;13.47;;;-2.00;99.90;;;-2.63;86.86;98378.75;5101185;27;20564;-69
2023/03/04 02:16:28;;;;;;;18.57;11.80;;;-2.00;99.90;;;-2.71;86.37;98386.44;5083102;28;20519;-67
2023/03/04 02:18:56;;;;;;;22.37;13.10;;;-2.00;99.90;;;-2.67;86.13;98381.75;5112304;27;20535;-67
2023/03/04 02:21:26;;;;;;;23.47;14.57;;;-2.00;99.90;;;-2.78;87.30;98387.91;5092407;28;20814;-67
2023/03/04 02:24:06;;;;;;;20.07;12.60;;;-2.10;99.90;;;-2.69;86.46;98381.88;5100925;28;20483;-68
2023/03/04 02:26:34;;;;;;;20.57;11.43;;;-2.10;99.90;;;-2.71;86.23;98373.22;5085784;28;20481;-66
2023/03/04 02:29:04;;;;;;;24.30;12.93;;;-2.20;99.90;;;-2.80;86.52;98381.91;5111997;28;20469;-66
2023/03/04 02:31:36;;;;;;;21.37;12.77;;;-2.20;99.90;;;-2.76;86.30;98372.75;5096701;28;20496;-66
2023/03/04 02:34:07;;;;;;;20.43;13.17;;;-2.20;99.90;;;-2.80;86.53;98366.03;5105890;28;20498;-66
2023/03/04 02:36:36;;;;;;;20.10;12.30;;;-2.10;99.90;;;-2.80;86.36;98366.03;5106599;28;20782;-67
2023/03/04 02:39:08;;;;;;;21.20;13.50;;;-2.10;99.30;;;-2.89;86.19;98347.28;5098563;28;20507;-68
2023/03/04 02:41:36;;;;;;;18.27;12.80;;;-2.20;99.80;;;-3.32;86.42;98293.34;5086409;28;20511;-67
2023/03/04 02:44:15;;;;;;;21.13;12.87;;;-2.10;99.40;;;-2.92;86.66;98363.38;5085185;28;20559;-67
2023/03/04 02:46:42;;;;;;;19.37;12.90;;;-2.10;98.70;;;-2.90;86.67;98364.09;5094613;28;20460;-66
2023/03/04 02:49:09;;;;;;;20.47;11.40;;;-2.10;98.30;;;-2.84;86.19;98365.44;5092733;28;20577;-67
2023/03/04 02:51:37;;;;;;;18.10;11.83;;;-2.10;98.40;;;-2.87;86.17;98353.28;5083714;28;20485;-68
2023/03/04 02:54:05;;;;;;;18.90;12.40;;;-2.20;97.70;;;-3.02;86.39;98357.13;5112607;27;20530;-66
2023/03/04 02:56:32;;;;;;;19.43;12.23;;;-2.20;97.60;;;-2.96;86.12;98348.69;5099860;28;20484;-66
2023/03/04 02:59:01;;;;;;;21.30;12.77;;;-2.20;98.10;;;-3.05;86.74;98346.81;5101636;28;20451;-66
2023/03/04 03:01:29;;;;;;;21.97;12.90;;;-2.20;97.70;;;-3.00;86.88;98344.63;5076421;28;20521;-68
2023/03/04 03:03:56;;;;;;;22.70;12.53;;;-2.20;97.70;;;-3.05;86.90;98342.34;5099980;28;20500;-67
2023/03/04 03:06:23;;;;;;;18.27;11.60;;;-2.20;97.90;;;-2.91;86.18;98346.56;5097966;28;20511;-68
2023/03/04 03:08:50;;;;;;;19.20;12.37;;;-2.20;98.60;;;-3.06;85.97;98345.13;5112284;27;21071;-68
2023/03/04 03:11:18;;;;;;;20.30;12.57;;;-2.30;97.60;;;-2.97;86.18;98341.72;5108105;27;20470;-67
2023/03/04 03:13:45;;;;;;;20.10;11.83;;;-2.30;98.30;;;-3.03;85.53;98344.88;5091327;28;20565;-67
2023/03/04 03:16:13;;;;;;;17.50;11.93;;;-2.30;97.80;;;-2.96;85.50;98355.81;5093738;28;20502;-67
2023/03/04 03:18:40;;;;;;;19.20;11.37;;;-2.30;97.90;;;-3.06;85.90;98350.41;5092633;28;20952;-67
2023/03/04 03:21:08;;;;;;;18.27;11.00;;;-2.40;96.90;;;-3.14;86.35;98357.13;5090982;27;20460;-67
2023/03/04 03:23:35;;;;;;;25.27;12.70;;;-2.40;97.50;;;-3.17;86.67;98354.72;5089127;28;20507;-68
2023/03/04 03:26:04;;;;;;;21.53;12.43;;;-2.40;98.30;;;-3.18;86.30;98345.13;5092123;28;20455;-68
2023/03/04 03:28:31;;;;;;;23.03;13.23;;;-2.40;99.30;;;-3.37;87.99;98364.19;5090037;28;20454;-67
2023/03/04 03:30:59;;;;;;;22.63;12.97;;;-2.50;98.90;;;-3.37;87.69;98358.09;5085958;28;21191;-67
2023/03/04 03:33:27;;;;;;;26.80;14.87;;;-2.50;99.40;;;-3.37;88.00;98360.72;5094254;28;20451;-66
2023/03/04 03:35:55;;;;;;;27.57;15.97;;;-2.50;99.90;;;-3.43;88.30;98359.41;5081776;28;20470;-68
2023/03/04 03:38:22;;;;;;;26.17;15.73;;;-2.60;99.90;;;-3.51;89.58;98367.06;5098687;28;20503;-67
2023/03/04 03:40:49;;;;;;;25.83;15.70;;;-2.70;99.90;;;-3.51;89.40;98365.28;5085918;28;20458;-67
2023/03/04 03:43:16;;;;;;;27.10;16.00;;;-2.70;99.90;;;-3.42;89.29;98361.91;5086980;28;20540;-66
2023/03/04 03:45:43;;;;;;;29.80;16.10;;;-2.60;99.90;;;-3.30;88.63;98359.28;5083750;28;20456;-66
2023/03/04 03:48:10;;;;;;;27.57;16.77;;;-2.50;99.90;;;-3.94;89.53;98292.81;5089119;28;20537;-68
2023/03/04 03:50:39;;;;;;;30.63;15.60;;;-2.60;99.90;;;-3.33;88.98;98370.09;5073168;28;20491;-68
2023/03/04 03:53:06;;;;;;;29.43;16.87;;;-2.50;99.90;;;-3.40;89.47;98366.25;5064669;28;20507;-67
2023/03/04 03:55:34;;;;;;;30.07;17.53;;;-2.60;99.90;;;-3.42;89.43;98359.25;5081605;28;20483;-66
2023/03/04 03:58:01;;;;;;;27.07;16.37;;;-2.50;99.90;;;-3.37;89.29;98371.31;5105776;28;20932;-67
2023/03/04 04:00:28;;;;;;;28.20;16.20;;;-2.50;99.90;;;-3.34;88.86;98365.78;5093349;28;21085;-68
2023/03/04 04:02:58;;;;;;;27.20;15.73;;;-2.50;99.90;;;-3.31;89.31;98363.75;5090923;28;21080;-67
2023/03/04 04:05:26;;;;;;;26.97;16.10;;;-2.40;99.90;;;-3.22;89.48;98377.19;5084909;28;20460;-67
2023/03/04 04:07:54;;;;;;;26.80;16.70;;;-2.40;99.90;;;-3.22;89.71;98367.47;5092735;28;21010;-66
2023/03/04 04:10:22;;;;;;;28.50;16.13;;;-2.40;99.90;;;-3.27;89.76;98374.91;5104353;28;20446;-65
2023/03/04 04:12:49;;;;;;;28.57;16.20;;;-2.40;99.90;;;-3.20;90.08;98380.56;5086724;28;21252;-66
2023/03/04 04:15:16;;;;;;;29.90;17.00;;;-2.40;99.90;;;-3.18;90.89;98381.31;5083284;28;20457;-67
2023/03/04 04:17:44;;;;;;;26.33;16.50;;;-2.40;99.90;;;-3.15;90.91;98379.22;5098411;28;20468;-67
2023/03/04 04:20:12;;;;;;;27.83;16.20;;;-2.40;99.90;;;-3.07;90.33;98391.03;5090165;28;20471;-67
2023/03/04 04:22:39;;;;;;;31.23;16.43;;;-2.30;99.90;;;-2.93;89.54;98384.66;5078610;28;20475;-65
2023/03/04 04:25:09;;;;;;;24.20;15.80;;;-2.20;99.90;;;-3.05;89.74;98386.47;5082246;28;20523;-67
2023/03/04 04:27:37;;;;;;;27.97;16.57;;;-2.20;99.90;;;-3.01;89.13;98358.81;5093299;27;20597;-67
2023/03/04 04:30:05;;;;;;;25.67;16.20;;;-2.10;99.90;;;-2.90;89.74;98390.56;5072452;28;21003;-68
2023/03/04 04:32:33;;;;;;;25.07;15.97;;;-2.20;99.90;;;-2.67;89.03;98385.22;5104503;27;20465;-66
2023/03/04 04:35:00;;;;;;;33.50;16.90;;;-2.00;99.90;;;-3.01;89.54;98375.53;5098015;28;20442;-67
2023/03/04 04:37:27;;;;;;;25.43;14.10;;;-2.10;99.90;;;-2.73;89.37;98393.66;5088288;28;20473;-67
2023/03/04 04:39:55;;;;;;;27.80;16.17;;;-2.00;99.90;;;-2.72;89.81;98398.84;5104818;28;20506;-66
2023/03/04 04:42:24;;;;;;;27.07;14.77;;;-2.00;99.90;;;-2.68;89.78;98406.53;5099275;27;20483;-67
2023/03/04 04:44:51;;;;;;;27.73;14.80;;;-1.90;99.90;;;-2.68;90.34;98399.41;5077684;28;20935;-66
2023/03/04 04:47:19;;;;;;;24.90;14.40;;;-2.00;99.90;;;-2.59;89.79;98393.41;5086603;28;20448;-66
2023/03/04 04:49:46;;;;;;;28.47;17.30;;;-1.90;99.90;;;-2.44;89.35;98387.84;5098876;28;20453;-66
2023/03/04 04:52:13;;;;;;;30.70;17.53;;;-1.80;99.90;;;-2.63;89.77;98393.78;5085488;28;20515;-67
2023/03/04 04:54:40;;;;;;;27.83;15.93;;;-1.80;99.90;;;-2.38;89.23;98392.63;5086530;28;20443;-67
2023/03/04 04:57:07;;;;;;;30.90;18.10;;;-1.80;99.90;;;-2.49;88.96;98397.97;5102528;28;20948;-66
2023/03/04 04:59:36;;;;;;;34.67;16.77;;;-1.80;99.90;;;-2.35;89.33;98391.56;5098863;28;20448;-66
2023/03/04 05:02:03;;;;;;;28.03;15.77;;;-1.80;99.90;;;-2.16;88.58;98396.22;5103252;28;20443;-67
2023/03/04 05:04:30;;;;;;;30.67;17.80;;;-1.60;99.90;;;-2.20;88.35;98392.97;5093925;28;20524;-67
2023/03/04 05:06:57;;;;;;;30.87;17.23;;;-1.60;99.90;;;-2.15;88.13;98395.25;5104437;28;20444;-67
2023/03/04 05:09:25;;;;;;;26.00;15.93;;;-1.50;99.90;;;-2.83;88.61;98310.72;5091854;28;20504;-67
2023/03/04 05:11:52;;;;;;;28.23;17.23;;;-1.60;99.90;;;-2.35;89.50;98392.41;5088450;28;20446;-66
2023/03/04 05:14:20;;;;;;;27.77;16.10;;;-1.60;99.90;;;-2.17;88.74;98399.81;5101293;28;20462;-67
2023/03/04 05:16:48;;;;;;;24.33;14.27;;;-1.60;99.90;;;-2.25;89.34;98394.31;5102697;28;20554;-66
2023/03/04 05:19:16;;;;;;;29.73;16.70;;;-1.60;99.90;;;-2.21;88.93;98399.22;5092811;28;20541;-67
2023/03/04 05:21:43;;;;;;;27.30;16.40;;;-1.60;99.90;;;-2.15;88.73;98390.78;5091999;28;20459;-67
2023/03/04 05:24:10;;;;;;;27.40;14.70;;;-1.50;99.90;;;-2.09;89.05;98402.69;5097873;28;20479;-67
2023/03/04 05:26:37;;;;;;;23.93;13.97;;;-1.50;99.90;;;-2.15;88.75;98403.19;5080267;28;20450;-67
2023/03/04 05:29:04;;;;;;;23.43;13.73;;;-1.50;99.90;;;-1.91;88.61;98407.44;5114798;27;20849;-68
2023/03/04 05:31:32;;;;;;;33.47;15.90;;;-1.40;99.90;;;-2.06;88.46;98405.06;5086167;28;20457;-68
2023/03/04 05:34:00;;;;;;;25.97;14.33;;;-1.40;99.90;;;-2.37;89.42;98407.56;5094051;28;21482;-66
2023/03/04 05:36:27;;;;;;;29.63;15.50;;;-1.60;99.90;;;-2.08;89.40;98399.06;5135258;27;20446;-68
2023/03/04 05:38:55;;;;;;;29.90;15.43;;;-1.60;99.90;;;-2.09;89.25;98402.69;5108411;28;20454;-65
2023/03/04 05:41:22;;;;;;;26.20;15.90;;;-1.50;99.90;;;-2.01;88.80;98404.69;5105542;28;21023;-67
2023/03/04 05:43:50;;;;;;;31.07;15.93;;;-1.40;99.90;;;-2.10;88.85;98406.28;5106125;28;20462;-66
2023/03/04 05:46:24;;;;;;;25.50;16.20;;;-1.50;99.90;;;-2.11;88.72;98401.13;5086696;28;20465;-66
2023/03/04 05:48:52;;;;;;;30.43;17.67;;;-1.50;99.90;;;-2.19;89.12;98401.75;5087016;28;21021;-67
2023/03/04 05:51:22;;;;;;;31.90;16.37;;;-1.50;99.90;;;-2.21;89.54;98403.66;5092487;28;20563;-66
2023/03/04 05:53:49;;;;;;;28.07;15.83;;;-1.50;99.90;;;-2.23;89.61;98395.88;5073073;28;20955;-67
2023/03/04 05:56:19;;;;;;;27.27;16.07;;;-1.50;99.90;;;-2.10;89.76;98402.81;5070158;28;20943;-66
2023/03/04 05:58:46;;;;;;;28.23;16.80;;;-1.40;99.90;;;-2.59;89.76;98342.28;5102246;28;20455;-67
2023/03/04 06:01:14;;;;;;;33.10;15.27;;;-1.50;99.90;;;-2.22;89.62;98407.28;5092688;28;20454;-67
2023/03/04 06:03:42;;;;;;;28.23;14.90;;;-1.50;99.90;;;-1.89;89.30;98409.00;5113566;28;21071;-66
2023/03/04 06:06:09;;;;;;;30.07;16.60;;;-1.40;99.90;;;-1.85;88.36;98399.00;5104358;28;20435;-67
2023/03/04 06:08:38;;;;;;;29.40;15.70;;;-1.30;99.90;;;-1.59;87.87;98409.25;5091668;28;21414;-67
2023/03/04 06:11:06;;;;;;;23.30;14.97;;;-1.20;99.90;;;-1.64;87.54;98401.66;5084607;28;20817;-67
2023/03/04 06:13:34;;;;;;;25.43;15.87;;;-1.10;99.90;;;-1.49;86.67;98410.13;5094301;27;20800;-67
2023/03/04 06:16:01;;;;;;;24.70;14.17;;;-1.00;99.90;;;-1.63;86.17;98411.28;5084490;28;21317;-67
2023/03/04 06:18:29;;;;;;;27.10;13.23;;;-1.00;99.90;;;-1.68;86.78;98402.03;5100127;28;20483;-68
2023/03/04 06:20:58;;;;;;;21.23;13.53;;;-1.00;99.80;;;-1.73;87.17;98413.03;5094764;28;20462;-70
2023/03/04 06:23:26;;;;;;;26.20;13.87;;;-1.10;99.10;;;-1.72;86.67;98391.72;5103291;28;20508;-67
2023/03/04 06:25:58;;;;;;;25.77;14.27;;;-1.00;99.30;;;-1.76;87.04;98403.50;5104017;27;20450;-67
2023/03/04 06:28:25;;;;;;;25.83;14.40;;;-1.00;98.30;;;-1.87;87.72;98424.78;5084040;28;20468;-67
2023/03/04 06:30:53;;;;;;;26.87;14.50;;;-1.20;98.80;;;-1.80;88.50;98419.81;5084730;28;21337;-67
2023/03/04 06:33:21;;;;;;;27.67;14.37;;;-1.20;99.90;;;-1.72;87.38;98420.84;5091284;28;21355;-67
2023/03/04 06:35:48;;;;;;;27.17;14.77;;;-1.10;99.90;;;-1.45;87.34;98421.31;5080466;28;20554;-65
2023/03/04 06:38:16;;;;;;;23.60;13.77;;;-0.90;99.90;;;-1.21;86.32;98431.66;5093917;28;20505;-68
2023/03/04 06:40:44;;;;;;;24.37;14.70;;;-0.70;98.20;;;-1.09;85.75;98434.25;5120948;27;20935;-66
2023/03/04 06:43:13;;;;;;;26.90;16.00;;;-0.50;96.90;;;-0.98;85.16;98428.88;5080302;28;20661;-76
2023/03/04 06:45:40;;;;;;;28.10;14.87;;;-0.50;95.60;;;-1.05;84.52;98427.69;5078826;28;20453;-68
2023/03/04 06:48:07;;;;;;;29.87;14.53;;;-0.50;94.70;;;-1.12;84.80;98431.88;5102523;28;20487;-67
2023/03/04 06:50:34;;;;;;;26.97;14.13;;;-0.50;94.50;;;-0.93;84.60;98429.31;5087106;28;20486;-66
2023/03/04 06:53:02;;;;;;;27.03;15.63;;;-0.50;94.90;;;-0.83;83.97;98441.75;5102093;27;20474;-67
2023/03/04 06:55:29;;;;;;;30.90;16.67;;;-0.40;94.00;;;-0.72;82.84;98444.34;5098094;28;20453;-68
2023/03/04 06:57:56;;;;;;;29.30;14.20;;;-0.30;93.00;;;-0.75;82.38;98439.31;5089196;28;20453;-67
2023/03/04 07:00:25;;;;;;;26.23;15.53;;;-0.20;91.90;;;-0.84;82.17;98440.09;5082881;28;21007;-75
2023/03/04 07:02:52;;;;;;;23.07;13.60;;;-0.20;91.10;;;-0.79;83.01;98448.50;5075285;28;20493;-69
2023/03/04 07:05:19;;;;;;;27.80;14.57;;;-0.20;91.70;;;-0.63;81.46;98443.56;5075717;28;20481;-68
2023/03/04 07:07:48;;;;;;;28.10;15.40;;;-0.10;91.10;;;-1.04;80.72;98378.97;5090459;27;20523;-72
2023/03/04 07:10:15;;;;;;;23.97;13.03;;;0.00;90.20;;;-0.60;81.26;98453.06;5082354;28;20435;-69
2023/03/04 07:12:42;;;;;;;26.27;13.37;;;0.00;90.20;;;-0.64;81.63;98451.63;5080996;28;20464;-69
2023/03/04 07:15:11;;;;;;;25.37;14.70;;;0.00;90.30;;;-0.70;80.98;98457.50;5100124;28;20479;-69
2023/03/04 07:17:40;;;;;;;25.77;13.80;;;0.00;89.90;;;-0.76;81.24;98457.06;5098440;27;20473;-67
2023/03/04 07:20:08;;;;;;;23.37;12.83;;;0.00;90.00;;;-0.78;81.40;98460.81;5101706;27;20476;-72
2023/03/04 07:22:36;;;;;;;21.67;12.40;;;-0.10;90.20;;;-0.82;82.26;98462.06;5092134;28;20863;-68
2023/03/04 07:25:03;;;;;;;25.20;14.13;;;-0.10;90.30;;;-0.70;81.69;98462.81;5086547;28;20455;-68
2023/03/04 07:27:30;;;;;;;22.87;12.97;;;-0.10;90.40;;;-0.48;80.45;98467.09;5077059;28;20530;-69
2023/03/04 07:29:58;;;;;;;21.33;13.43;;;0.00;90.30;;;-0.37;80.36;98469.66;5081020;28;20521;-68
2023/03/04 07:32:26;;;;;;;29.23;14.97;;;0.20;89.10;;;-0.16;79.45;98466.88;5090238;27;20479;-69
2023/03/04 07:34:55;;;;;;;21.90;13.20;;;0.30;88.20;;;-0.23;78.97;98464.91;5081682;28;20485;-69
2023/03/04 07:37:22;;;;;;;20.80;12.17;;;0.40;86.90;;;-0.10;80.53;98470.00;5079941;28;21063;-68
2023/03/04 07:39:49;;;;;;;26.73;14.37;;;0.40;89.40;;;-0.22;78.42;98466.63;5075470;28;20436;-69
2023/03/04 07:42:17;;;;;;;29.80;14.17;;;0.40;85.70;;;0.04;79.44;98461.63;5075375;28;20452;-68
2023/03/04 07:44:44;;;;;;;22.40;13.67;;;0.60;88.00;;;-0.06;78.13;98471.41;5092874;28;20551;-69
2023/03/04 07:47:11;;;;;;;24.87;13.77;;;0.60;84.30;;;-0.16;78.46;98460.75;5077815;28;20463;-69
2023/03/04 07:49:38;;;;;;;21.10;14.43;;;0.60;84.40;;;-0.01;78.38;98470.03;5080046;28;20494;-68
2023/03/04 07:52:07;;;;;;;25.20;13.60;;;0.60;84.50;;;0.24;78.29;98470.50;5079742;28;20858;-68
2023/03/04 07:54:35;;;;;;;20.30;13.73;;;0.70;85.60;;;0.24;77.73;98459.84;5085468;28;21330;-68
2023/03/04 07:57:02;;;;;;;22.77;13.77;;;0.80;83.90;;;0.18;76.79;98463.06;5088355;28;20458;-68
2023/03/04 07:59:29;;;;;;;23.70;13.90;;;0.80;82.50;;;0.30;76.51;98473.56;5088266;28;20721;-68
2023/03/04 08:01:56;;;;;;;26.10;14.50;;;0.80;82.30;;;0.18;75.81;98462.22;5087718;28;20485;-68
2023/03/04 08:04:23;;;;;;;22.87;14.00;;;0.80;82.30;;;0.25;76.02;98458.88;5089907;28;20482;-68
2023/03/04 08:06:51;;;;;;;23.60;12.70;;;0.80;81.80;;;0.08;75.97;98462.22;5100226;28;20999;-70
2023/03/04 08:09:19;;;;;;;22.67;13.73;;;0.70;81.60;;;0.51;78.44;98468.13;5097087;27;20518;-70
2023/03/04 08:11:46;;;;;;;25.17;13.93;;;0.90;87.30;;;0.81;78.48;98464.44;5082034;28;20492;-69
2023/03/04 08:14:14;;;;;;;16.93;12.33;;;1.20;90.40;;;0.77;74.88;98463.06;5099362;27;20455;-68
2023/03/04 08:16:42;;;;;;;21.83;13.03;;;1.30;82.30;;;0.88;74.34;98463.88;5083162;28;20973;-71
2023/03/04 08:19:11;;;;;;;22.47;14.23;;;1.30;80.90;;;0.62;74.44;98469.78;5098360;27;20444;-68
2023/03/04 08:21:38;;;;;;;22.17;14.20;;;1.20;79.80;;;0.85;73.46;98462.34;5086008;28;20928;-66
2023/03/04 08:24:07;;;;;;;23.67;14.07;;;1.30;79.50;;;0.91;73.28;98460.94;5080026;28;20925;-69
2023/03/04 08:26:40;;;;;;;22.90;13.43;;;1.40;79.20;;;1.13;72.23;98455.28;5088633;28;20796;-67
2023/03/04 08:29:09;;;;;;;21.00;13.10;;;1.50;78.70;;;1.07;72.18;98458.53;5080492;28;20428;-67
2023/03/04 08:31:38;;;;;;;26.27;13.03;;;1.50;78.00;;;0.92;71.61;98460.81;5087895;28;20455;-69
2023/03/04 08:34:06;;;;;;;22.63;13.60;;;1.50;77.40;;;0.70;72.14;98464.63;5076732;28;20445;-66
2023/03/04 08:36:34;;;;;;;19.23;12.47;;;1.40;77.60;;;0.63;72.91;98463.47;5096314;27;20451;-69
2023/03/04 08:39:02;;;;;;;19.27;13.00;;;1.30;77.50;;;0.76;71.99;98466.69;5083729;28;20531;-68
2023/03/04 08:41:29;;;;;;;16.83;11.90;;;1.30;77.40;;;0.62;72.15;98464.47;5085838;28;21017;-71
2023/03/04 08:43:57;;;;;;;20.00;13.53;;;1.30;77.20;;;0.72;72.19;98462.66;5116251;27;20883;-71
2023/03/04 08:46:25;;;;;;;20.87;13.03;;;1.20;77.90;;;0.97;72.17;98447.06;5082632;27;21146;-71
2023/03/04 08:48:52;;;;;;;20.47;12.30;;;1.40;77.80;;;0.93;71.11;98451.84;5078784;28;21348;-67
2023/03/04 08:51:19;;;;;;;21.23;13.50;;;1.50;76.70;;;0.83;71.23;98457.19;5081467;28;20507;-71
2023/03/04 08:53:47;;;;;;;23.77;13.97;;;1.50;76.50;;;0.88;71.07;98448.75;5079235;28;20459;-69
2023/03/04 08:56:15;;;;;;;23.07;13.47;;;1.50;76.70;;;0.87;71.43;98460.38;5077197;28;20447;-68
2023/03/04 08:58:43;;;;;;;21.70;13.67;;;1.50;76.30;;;1.09;70.77;98453.06;5094044;28;20487;-71
2023/03/04 09:01:13;;;;;;;20.23;13.60;;;1.50;76.50;;;1.10;70.53;98458.22;5115539;27;20519;-68
2023/03/04 09:03:42;;;;;;;20.60;12.47;;;1.60;76.10;;;1.10;70.33;98450.25;5108613;28;20438;-68
2023/03/04 09:06:12;;;;;;;21.13;13.63;;;1.70;76.00;;;1.27;70.26;98466.44;5109487;28;20450;-71
2023/03/04 09:08:39;;;;;;;21.52;14.30;;;1.80;75.90;;;1.30;69.96;98466.19;5116326;27;20930;-71
2023/03/04 09:11:07;;;;;;;21.63;13.80;;;1.90;75.80;;;1.34;69.55;98464.91;5089726;28;20629;-69
2023/03/04 09:13:35;;;;;;;18.70;13.00;;;1.90;75.50;;;1.24;69.37;98443.63;5081310;28;20452;-68
2023/03/04 09:16:02;;;;;;;18.43;12.90;;;1.90;75.40;;;1.04;69.79;98405.59;5084525;28;20455;-68
2023/03/04 09:18:30;;;;;;;20.40;13.57;;;2.00;75.60;;;1.61;69.19;98468.59;5102094;28;21088;-71
2023/03/04 09:20:57;;;;;;;23.23;16.52;;;2.00;75.60;;;1.57;68.57;98463.69;5089097;28;20437;-70
2023/03/04 09:23:25;;;;;;;25.13;14.67;;;2.20;75.10;;;1.38;69.17;98470.78;5091338;28;20668;-71
2023/03/04 09:25:52;;;;;;;18.90;13.30;;;2.00;75.10;;;1.13;69.91;98473.09;5093654;28;20536;-70
2023/03/04 09:28:20;;;;;;;25.57;14.73;;;1.80;75.10;;;1.07;69.86;98469.16;5084883;28;20455;-69
2023/03/04 09:30:47;;;;;;;19.77;13.10;;;1.70;75.30;;;1.13;69.56;98479.22;5086934;28;20552;-68
2023/03/04 09:33:15;;;;;;;22.27;14.43;;;1.80;75.10;;;1.36;69.09;98473.56;5074394;28;20910;-70
2023/03/04 09:35:43;;;;;;;20.97;14.30;;;1.90;75.10;;;1.29;68.83;98471.63;5084507;28;20448;-68
2023/03/04 09:38:11;;;;;;;21.50;13.10;;;1.90;74.80;;;1.52;68.66;98466.78;5086195;28;20509;-70
2023/03/04 09:40:41;;;;;;;21.73;15.40;;;2.00;74.80;;;1.47;68.67;98461.91;5088246;28;20463;-70
2023/03/04 09:43:18;;;;;;;21.23;14.43;;;2.10;74.50;;;1.39;68.60;98473.28;5083172;28;20741;-67
2023/03/04 09:45:50;;;;;;;23.50;14.83;;;2.10;74.40;;;1.64;68.10;98470.94;5080847;28;20514;-72
2023/03/04 09:48:23;;;;;;;22.17;14.40;;;2.20;74.50;;;1.60;67.83;98466.91;5075065;28;20451;-69
2023/03/04 09:51:11;;;;;;;19.87;12.67;;;2.20;74.00;;;1.05;68.35;98439.19;5088232;28;20459;-71
2023/03/04 09:53:53;;;;;;;19.87;14.20;;;2.00;73.90;;;1.46;68.21;98472.72;5090239;28;20469;-68
2023/03/04 09:56:20;;;;;;;29.60;16.50;;;2.00;74.10;;;1.51;67.81;98470.44;5089437;28;21231;-70
2023/03/04 09:58:57;;;;;;;27.27;14.27;;;2.10;74.00;;;1.69;67.29;98474.00;5076336;28;20659;-71
2023/03/04 10:01:30;;;;;;;22.00;14.60;;;2.20;73.80;;;1.79;67.31;98470.47;5094095;27;20566;-68
2023/03/04 10:04:04;;;;;;;22.27;14.63;;;2.30;73.70;;;1.88;66.84;98471.41;5079802;28;20457;-70
2023/03/04 10:06:34;;;;;;;20.33;13.93;;;2.40;73.40;;;1.80;66.70;98472.13;5078040;28;20459;-70
2023/03/04 10:09:06;;;;;;;21.17;13.63;;;2.40;73.20;;;1.50;67.31;98432.31;5084969;28;21775;-69
2023/03/04 10:11:40;;;;;;;23.20;14.03;;;2.30;73.40;;;1.80;66.80;98464.97;5074549;28;21101;-70
2023/03/04 10:14:33;;;;;;;21.87;15.23;;;2.40;73.50;;;2.29;65.63;98468.34;5115581;27;20459;-69